Accueil
METAR-TAF:

METAR-TAF

Aéroports :

Helsinki, Finlande

Aéroport d'Helsinki-Vantaa

latitude: 60-19N, longitude: 024-58E, altitude: 51 m

Observation

Le bulletin a été fait il y a 16 minutes, à 07:50 UTC
Vent 6 kt de nord-est
Température 1°C
Humidité 86%
Pression 1025 hPa
Visibilité 10 km ou plus
Quelques nuages à une hauteur de 900 ft

METAR: EFHK 230750Z 04006KT 9999 FEW009 01/M01 Q1025 NOSIG

Heure: 11:06 (08:06 UTC)

Prévision

Le bulletin a été fait il y a 2 heures et 41 minutes, à 05:25 UTC
Prévision valable du 23 à 06 UTC au 24 à 06 UTC
Vent 7 kt de nord-est
Visibilité 10 km ou plus
pas de nuages en-dessous de 1500 mètres et pas de cumulonimbus.
Temporairement
du 24 à 00 UTC au 24 à 06 UTC
Visibilité: 2500 m
Quelques nuages à une hauteur de 1500 ft, Cumulonimbus.
neige faible

TAF: EFHK 230525Z 2306/2406 04007KT CAVOK TEMPO 2400/2406 2500 -SN FEW015CB

Observations et prévisions météorologiques de plus de 4000 aéroports (messages METAR et TAF).

Les stations disponibles sont représentées par des disques jaunes et rouges sur la carte.

Passer la souris dessus pour voir le nom de la station.

Cliquer dessus pour voir les observations et prévisions météorologiques.

Pour changer de carte: cliquez sur les boutons verts avec une croix noire pour zoomer, sur le bouton vert avec un tiret pour effectuer un zoom arrière, ou sur les flèches vertes pour les cartes adjacentes.


METAR-TAF: